Time;durP1;ratioP1;P1;durP2;ratioP2;P2;SDS_P1;SDS_P2;PMS_P1;PMS_P2;Temp;Humidity;BMP_temperature;BMP_pressure;BME280_temperature;BME280_humidity;BME280_pressure;Samples;Min_cycle;Max_cycle;Signal;HPM_P1;HPM_P2
2023/03/03 00:01:36;;;;;;;50.15;18.40;;;;;;;-1.43;100.00;102285.84;4951397;29;20032;-86
2023/03/03 00:04:02;;;;;;;45.23;17.97;;;;;;;-1.55;100.00;102282.53;4951634;29;20032;-86
2023/03/03 00:06:29;;;;;;;49.00;18.63;;;;;;;-1.61;100.00;102292.78;4950943;29;20043;-86
2023/03/03 00:08:56;;;;;;;51.75;20.52;;;;;;;-1.59;100.00;102286.44;4951772;29;20118;-87
2023/03/03 00:11:21;;;;;;;48.88;19.15;;;;;;;-1.50;100.00;102284.75;4951560;29;20019;-86
2023/03/03 00:13:50;;;;;;;51.73;18.67;;;;;;;-1.34;100.00;102293.84;4946511;29;20054;-87
2023/03/03 00:16:31;;;;;;;52.67;20.52;;;;;;;-1.19;100.00;102296.88;4938848;29;20557;-87
2023/03/03 00:18:57;;;;;;;54.13;19.95;;;;;;;-1.09;100.00;102289.75;4939272;29;20024;-87
2023/03/03 00:21:31;;;;;;;62.17;21.10;;;;;;;-1.02;100.00;102287.38;4937426;29;20023;-86
2023/03/03 00:24:34;;;;;;;51.90;19.15;;;;;;;-0.97;100.00;102307.03;4936861;29;20500;-87
2023/03/03 00:27:07;;;;;;;64.40;23.38;;;;;;;-1.04;100.00;102290.16;4937708;29;20039;-87
2023/03/03 00:29:44;;;;;;;51.20;19.98;;;;;;;-0.94;100.00;102306.75;4936776;29;20075;-87
2023/03/03 00:32:54;;;;;;;55.40;19.67;;;;;;;-0.92;100.00;102298.72;4938279;29;20111;-87
2023/03/03 00:35:37;;;;;;;53.20;19.57;;;;;;;-0.89;100.00;102301.03;4938971;29;20788;-86
2023/03/03 00:38:16;;;;;;;54.17;18.90;;;;;;;-0.89;100.00;102292.31;4939751;29;20024;-87
2023/03/03 00:40:42;;;;;;;51.00;19.17;;;;;;;-0.81;100.00;102295.88;4940141;29;20035;-87
2023/03/03 00:43:16;;;;;;;51.55;19.45;;;;;;;-0.77;100.00;102301.69;4938314;29;20035;-86
2023/03/03 00:45:57;;;;;;;48.63;18.17;;;;;;;-0.74;100.00;102311.09;4937766;29;20123;-86
2023/03/03 00:48:26;;;;;;;49.92;17.85;;;;;;;-0.71;100.00;102310.78;4951035;29;20027;-87
2023/03/03 00:50:57;;;;;;;47.63;18.48;;;;;;;-0.69;100.00;102307.06;4958209;29;20015;-86
2023/03/03 00:53:26;;;;;;;49.83;18.65;;;;;;;-0.59;100.00;102314.91;4957672;29;20024;-86
2023/03/03 00:55:52;;;;;;;44.78;17.40;;;;;;;-0.61;100.00;102306.31;4956503;29;20016;-86
2023/03/03 00:58:20;;;;;;;48.88;18.63;;;;;;;-0.65;100.00;102300.53;4948243;29;20028;-86
2023/03/03 01:00:52;;;;;;;49.20;19.05;;;;;;;-0.55;100.00;102300.47;4951529;29;20028;-87
2023/03/03 01:03:21;;;;;;;46.25;18.60;;;;;;;-0.59;100.00;102287.72;4934856;29;20083;-87
2023/03/03 01:05:48;;;;;;;42.57;15.90;;;;;;;-0.52;100.00;102304.59;4919338;29;20043;-87
2023/03/03 01:08:14;;;;;;;35.07;15.00;;;;;;;-0.61;100.00;102290.53;4936457;29;20331;-87
2023/03/03 01:10:45;;;;;;;41.10;16.67;;;;;;;-0.53;100.00;102309.03;4919829;29;20408;-86
2023/03/03 01:13:11;;;;;;;44.47;17.65;;;;;;;-0.47;100.00;102318.97;4936471;29;20036;-87
2023/03/03 01:15:40;;;;;;;48.45;18.65;;;;;;;-0.46;100.00;102320.66;4937094;29;20019;-87
2023/03/03 01:18:07;;;;;;;42.28;16.75;;;;;;;-0.44;100.00;102320.47;4935456;29;20509;-87
2023/03/03 01:20:32;;;;;;;44.25;17.63;;;;;;;-0.41;100.00;102316.75;4934979;29;20032;-88
2023/03/03 01:22:57;;;;;;;46.33;18.33;;;;;;;-0.42;100.00;102320.34;4935123;29;20671;-88
2023/03/03 01:25:23;;;;;;;39.80;16.40;;;;;;;-0.42;100.00;102315.09;4934719;29;20038;-85
2023/03/03 01:27:48;;;;;;;43.88;16.95;;;;;;;-0.33;100.00;102335.25;4934514;29;20377;-85
2023/03/03 01:30:14;;;;;;;36.97;15.07;;;;;;;-0.37;100.00;102326.84;4942428;29;20088;-88
2023/03/03 01:32:40;;;;;;;42.97;16.80;;;;;;;-0.38;100.00;102324.34;4934207;29;20026;-86
2023/03/03 01:35:07;;;;;;;35.37;14.60;;;;;;;-0.43;100.00;102310.78;4935996;29;20295;-86
2023/03/03 01:37:34;;;;;;;38.08;15.13;;;;;;;-0.42;100.00;102321.16;4935221;29;20031;-86
2023/03/03 01:39:59;;;;;;;36.47;15.43;;;;;;;-0.43;100.00;102330.03;4935214;29;20024;-87
2023/03/03 01:42:28;;;;;;;38.63;15.50;;;;;;;-0.44;100.00;102332.84;4934800;29;20499;-86
2023/03/03 01:45:39;;;;;;;36.65;15.50;;;;;;;-0.51;100.00;102333.41;4935435;29;20051;-86
2023/03/03 01:48:27;;;;;;;37.47;15.40;;;;;;;-0.38;100.00;102346.25;4917009;29;20036;-87
2023/03/03 01:51:12;;;;;;;39.63;15.17;;;;;;;-0.47;100.00;102342.69;4940770;29;20842;-87
2023/03/03 01:53:43;;;;;;;39.13;15.05;;;;;;;-0.53;100.00;102332.72;4933913;29;20468;-86
2023/03/03 01:56:09;;;;;;;38.20;15.13;;;;;;;-0.74;100.00;102304.03;4934990;29;20067;-87
2023/03/03 01:58:38;;;;;;;32.47;13.40;;;;;;;-0.53;100.00;102335.38;4934328;29;20452;-87
2023/03/03 02:01:10;;;;;;;42.00;16.40;;;;;;;-0.62;100.00;102321.28;4935176;29;20032;-87
2023/03/03 02:03:35;;;;;;;41.30;16.42;;;;;;;-0.63;100.00;102332.78;4934713;29;20059;-85
2023/03/03 02:06:08;;;;;;;36.83;14.50;;;;;;;-0.64;100.00;102332.94;4934669;29;20035;-86
2023/03/03 02:08:51;;;;;;;39.90;16.80;;;;;;;-0.70;100.00;102320.34;4932916;29;20023;-86
2023/03/03 02:11:18;;;;;;;45.80;15.93;;;;;;;-0.75;100.00;102318.16;4935531;29;20031;-87
2023/03/03 02:13:43;;;;;;;37.75;14.27;;;;;;;-0.75;100.00;102330.50;4932320;29;20034;-87
2023/03/03 02:16:09;;;;;;;43.50;16.50;;;;;;;-0.75;100.00;102338.41;4934435;29;20035;-86
2023/03/03 02:18:34;;;;;;;40.93;16.60;;;;;;;-0.78;100.00;102337.72;4933046;29;20038;-87
2023/03/03 02:21:10;;;;;;;37.97;15.90;;;;;;;-0.75;100.00;102331.31;4934741;29;20036;-87
2023/03/03 02:23:44;;;;;;;40.17;16.77;;;;;;;-0.76;100.00;102342.81;4933447;29;20032;-86
2023/03/03 02:26:14;;;;;;;34.90;14.60;;;;;;;-0.75;100.00;102330.50;4935690;29;20306;-87
2023/03/03 02:28:41;;;;;;;36.85;14.73;;;;;;;-0.75;100.00;102336.59;4940243;29;20099;-86
2023/03/03 02:31:15;;;;;;;38.40;16.13;;;;;;;-0.75;100.00;102335.78;4937410;29;20031;-86
2023/03/03 02:33:46;;;;;;;43.67;16.88;;;;;;;-0.77;100.00;102328.00;4933254;29;20369;-86
2023/03/03 02:36:26;;;;;;;37.60;14.68;;;;;;;-0.78;100.00;102326.34;4940839;29;20103;-86
2023/03/03 02:38:56;;;;;;;43.65;16.60;;;;;;;-0.77;100.00;102330.63;4934554;29;20567;-87
2023/03/03 02:41:33;;;;;;;41.88;16.05;;;;;;;-0.75;100.00;102338.41;4935036;29;20060;-87
2023/03/03 02:43:59;;;;;;;43.70;16.10;;;;;;;-0.73;100.00;102329.38;4916117;29;20114;-87
2023/03/03 02:46:25;;;;;;;40.50;15.67;;;;;;;-0.71;100.00;102337.13;4934144;29;20079;-86
2023/03/03 02:48:51;;;;;;;40.38;15.02;;;;;;;-0.73;100.00;102325.94;4928020;29;20107;-86
2023/03/03 02:51:16;;;;;;;43.63;16.57;;;;;;;-0.74;100.00;102322.44;4934646;29;20059;-86
2023/03/03 02:53:42;;;;;;;39.67;14.73;;;;;;;-0.75;100.00;102325.25;4933650;29;20062;-87
2023/03/03 02:56:08;;;;;;;36.13;14.05;;;;;;;-0.73;100.00;102323.28;4934580;29;20059;-87
2023/03/03 02:58:37;;;;;;;37.50;14.77;;;;;;;-0.72;100.00;102331.03;4932427;29;20027;-88
2023/03/03 03:01:03;;;;;;;37.60;14.93;;;;;;;-0.69;100.00;102340.44;4934794;29;20024;-87
2023/03/03 03:03:28;;;;;;;25.75;10.85;;;;;;;-0.72;100.00;102325.78;4933164;29;20034;-87
2023/03/03 03:05:54;;;;;;;36.33;15.43;;;;;;;-0.67;100.00;102335.84;4915179;29;20036;-87
2023/03/03 03:08:19;;;;;;;37.00;15.13;;;;;;;-0.72;100.00;102323.13;4917634;29;20366;-87
2023/03/03 03:10:45;;;;;;;33.60;14.67;;;;;;;-0.68;100.00;102329.78;4934375;29;20035;-88
2023/03/03 03:13:10;;;;;;;36.17;14.87;;;;;;;-0.73;100.00;102326.75;4934029;29;20177;-88
2023/03/03 03:15:36;;;;;;;40.22;15.00;;;;;;;-0.67;100.00;102333.22;4932865;29;20046;-87
2023/03/03 03:18:05;;;;;;;37.50;15.03;;;;;;;-0.65;100.00;102336.53;4934396;29;20503;-88
2023/03/03 03:23:49;;;;;;;36.58;13.85;;;;;;;-0.84;100.00;102308.53;4933140;29;20194;-85
2023/03/03 03:26:55;;;;;;;38.92;14.88;;;;;;;-0.98;100.00;102286.13;4931168;29;20047;-85
2023/03/03 03:29:27;;;;;;;34.33;12.88;;;;;;;-0.68;100.00;102342.09;4918942;29;20043;-85
2023/03/03 03:31:53;;;;;;;36.50;14.77;;;;;;;-0.80;100.00;102321.22;4933548;29;20028;-86
2023/03/03 03:34:19;;;;;;;33.30;13.73;;;;;;;-0.54;100.00;102348.69;4932450;29;20299;-86
2023/03/03 03:36:53;;;;;;;31.33;13.20;;;;;;;-0.91;100.00;102292.44;4933571;29;20044;-87
2023/03/03 03:39:55;;;;;;;34.47;13.32;;;;;;;-0.56;100.00;102340.94;4933060;29;20051;-87
2023/03/03 03:42:21;;;;;;;39.67;15.23;;;;;;;-0.70;100.00;102334.34;4927786;29;20028;-86
2023/03/03 03:47:57;;;;;;;35.70;14.25;;;;;;;-0.83;100.00;102308.34;4948285;29;20330;-87
2023/03/03 03:53:45;;;;;;;36.70;13.48;;;;;;;-0.66;100.00;102350.69;4931606;29;20035;-86
2023/03/03 03:56:31;;;;;;;29.90;11.23;;;;;;;-0.75;100.00;102312.06;4938516;29;20043;-87
2023/03/03 03:58:56;;;;;;;32.25;12.70;;;;;;;-0.96;100.00;102308.69;4935572;29;20027;-86
2023/03/03 04:01:22;;;;;;;32.50;12.70;;;;;;;-0.74;100.00;102353.22;4931613;29;20039;-87
2023/03/03 04:03:56;;;;;;;31.97;12.30;;;;;;;-0.91;100.00;102337.19;4934515;29;20119;-86
2023/03/03 04:06:39;;;;;;;30.42;12.25;;;;;;;-1.09;100.00;102309.00;4933154;29;20038;-86
2023/03/03 04:09:37;;;;;;;32.50;12.98;;;;;;;-0.73;100.00;102368.06;4932542;29;20038;-86
2023/03/03 04:12:03;;;;;;;30.40;11.30;;;;;;;-0.74;100.00;102363.75;4930372;29;20052;-86
2023/03/03 04:14:32;;;;;;;31.17;11.73;;;;;;;-1.01;100.00;102316.19;4930491;29;20041;-86
2023/03/03 04:17:52;;;;;;;;;;;;;;;;;;;;;
2023/03/03 04:26:11;;;;;;;35.53;12.40;;;;;;;-0.81;100.00;102363.47;4996801;23;20323;-86
2023/03/03 04:28:36;;;;;;;31.88;12.82;;;;;;;-0.84;100.00;102364.59;4914028;29;20234;-86
2023/03/03 04:31:02;;;;;;;33.50;12.67;;;;;;;-0.74;100.00;102367.19;4919638;29;20657;-86
2023/03/03 04:33:27;;;;;;;32.08;11.85;;;;;;;-0.77;100.00;102365.69;4917293;29;20076;-86
2023/03/03 04:35:52;;;;;;;31.53;12.17;;;;;;;-0.77;100.00;102359.59;4917947;29;20032;-86
2023/03/03 04:38:19;;;;;;;30.93;12.53;;;;;;;-0.75;100.00;102367.38;4917552;29;20487;-86
2023/03/03 04:40:44;;;;;;;33.60;13.27;;;;;;;-0.82;100.00;102351.31;4917964;29;20024;-86
2023/03/03 04:43:10;;;;;;;29.53;10.67;;;;;;;-0.71;100.00;102363.44;4917512;29;20439;-86
2023/03/03 04:45:38;;;;;;;32.70;13.32;;;;;;;-0.74;100.00;102371.66;4917858;29;20480;-86
2023/03/03 04:48:10;;;;;;;31.77;13.00;;;;;;;-0.98;100.00;102330.88;4914235;29;20040;-86
2023/03/03 04:50:44;;;;;;;33.37;13.33;;;;;;;-0.73;100.00;102366.22;4916986;29;20407;-84
2023/03/03 04:53:38;;;;;;;34.05;12.75;;;;;;;-0.95;100.00;102338.47;5110407;23;20062;-85
2023/03/03 04:56:10;;;;;;;38.78;13.95;;;;;;;-0.90;100.00;102336.22;4953058;28;20031;-85
2023/03/03 04:58:41;;;;;;;31.15;11.65;;;;;;;-0.95;100.00;102336.66;4955861;28;20123;-85
2023/03/03 05:01:48;;;;;;;32.15;12.77;;;;;;;-0.77;100.00;102352.53;4955341;28;20031;-85
2023/03/03 05:05:04;;;;;;;35.80;13.50;;;;;;;-1.00;100.00;102322.28;4934023;29;20032;-85
2023/03/03 05:07:36;;;;;;;37.30;13.63;;;;;;;-0.89;100.00;102339.69;4895947;29;20056;-85
2023/03/03 05:10:13;;;;;;;39.00;14.98;;;;;;;-0.86;100.00;102348.13;4909360;29;20509;-86
2023/03/03 05:12:48;;;;;;;43.33;13.77;;;;;;;-1.03;100.00;102314.66;4923560;29;20317;-87
2023/03/03 05:15:16;;;;;;;34.83;13.23;;;;;;;-0.95;100.00;102331.41;4934531;29;20559;-85
2023/03/03 05:17:48;;;;;;;40.97;14.50;;;;;;;-0.88;100.00;102346.63;4934824;29;20786;-85
2023/03/03 05:20:21;;;;;;;36.65;13.73;;;;;;;-0.96;100.00;102321.03;4934505;29;20055;-86
2023/03/03 05:23:46;;;;;;;;;;;;;;;;;;;;;
2023/03/03 05:30:20;;;;;;;34.08;13.07;;;;;;;-0.58;100.00;102379.75;4937490;29;20038;-87
2023/03/03 06:20:05;;;;;;;34.10;12.80;;;;;;;-0.43;100.00;102366.91;4916684;29;20095;-84
2023/03/03 07:45:26;;;;;;;;;;;;;;;;;;;;;
2023/03/03 09:00:57;;;;;;;;;;;;;;;;;;;;;
2023/03/03 09:10:59;;;;;;;37.10;12.38;;;;;;;2.14;100.00;102551.09;4994714;28;20199;-85
2023/03/03 09:13:24;;;;;;;26.35;11.73;;;;;;;1.82;100.00;102508.50;4875273;29;20040;-84
2023/03/03 09:15:50;;;;;;;30.73;11.23;;;;;;;1.96;100.00;102534.34;4878778;29;20029;-84
2023/03/03 10:14:46;;;;;;;17.05;7.85;;;;;;;4.04;99.19;102586.47;4996721;23;20054;-84
2023/03/03 10:26:26;;;;;;;17.88;7.63;;;;;;;4.44;97.82;102585.66;5064321;23;20058;-85
2023/03/03 10:28:30;;;;;;;19.52;7.97;;;;;;;4.70;97.78;102591.50;4970170;28;20034;-85
2023/03/03 10:31:18;;;;;;;18.07;7.50;;;;;;;4.91;96.30;102591.84;5013082;28;20018;-87
2023/03/03 10:33:56;;;;;;;17.90;8.47;;;;;;;4.88;93.82;102581.59;5014016;28;20300;-88
2023/03/03 10:36:32;;;;;;;16.05;6.95;;;;;;;4.79;93.38;102592.28;4992913;28;20049;-87
2023/03/03 10:39:17;;;;;;;16.45;7.80;;;;;;;4.62;93.68;102574.78;5014850;28;20060;-89
2023/03/03 10:42:04;;;;;;;20.00;8.05;;;;;;;4.73;95.48;102586.84;5014326;28;20489;-88
2023/03/03 10:44:45;;;;;;;18.80;8.05;;;;;;;4.64;94.01;102586.06;4980207;28;20034;-88
2023/03/03 10:47:26;;;;;;;18.27;7.88;;;;;;;4.82;93.81;102586.63;5002867;28;20053;-88
2023/03/03 10:50:30;;;;;;;20.60;8.20;;;;;;;5.10;94.07;102580.75;5000531;28;20106;-84
2023/03/03 10:53:23;;;;;;;15.57;7.70;;;;;;;5.10;92.63;102586.06;5026875;28;20024;-84
2023/03/03 10:56:00;;;;;;;14.23;7.00;;;;;;;5.14;92.42;102581.22;5018947;28;20033;-83
2023/03/03 10:58:42;;;;;;;17.57;7.50;;;;;;;5.13;91.02;102584.88;5003688;28;20384;-84
2023/03/03 11:01:24;;;;;;;18.38;7.95;;;;;;;5.17;90.66;102582.72;5025458;28;20528;-84
2023/03/03 11:04:19;;;;;;;16.20;7.05;;;;;;;4.95;90.71;102585.19;5014122;28;20057;-84
2023/03/03 11:07:22;;;;;;;15.63;7.55;;;;;;;4.78;93.74;102572.03;5024846;28;20041;-83
2023/03/03 11:10:26;;;;;;;15.90;6.90;;;;;;;4.78;92.66;102577.34;4997639;28;20029;-84
2023/03/03 11:13:07;;;;;;;13.80;6.38;;;;;;;4.62;92.89;102580.09;5027633;28;20068;-84
2023/03/03 11:15:45;;;;;;;15.43;7.35;;;;;;;4.59;94.06;102577.78;4990902;28;20098;-84
2023/03/03 11:18:21;;;;;;;16.02;7.20;;;;;;;4.84;93.10;102579.28;5013347;28;20568;-83
2023/03/03 11:20:59;;;;;;;14.43;7.20;;;;;;;5.33;92.26;102581.75;5004950;28;20030;-83
2023/03/03 11:23:52;;;;;;;17.57;7.33;;;;;;;5.73;90.06;102569.06;5009751;28;20850;-83
2023/03/03 11:26:27;;;;;;;16.05;7.65;;;;;;;6.02;88.48;102578.13;5022304;28;20065;-83
2023/03/03 11:29:10;;;;;;;13.70;6.57;;;;;;;5.97;87.25;102573.28;5003603;28;20160;-83
2023/03/03 11:37:35;;;;;;;16.65;7.40;;;;;;;6.14;87.94;102566.00;5165775;23;20078;-83
2023/03/03 11:40:13;;;;;;;15.85;7.85;;;;;;;5.88;84.74;102566.44;4930874;29;20036;-84
2023/03/03 11:43:06;;;;;;;11.93;6.15;;;;;;;6.04;87.82;102562.75;4973936;28;20051;-83
2023/03/03 11:46:02;;;;;;;15.10;7.50;;;;;;;6.31;85.50;102571.91;4983041;28;20030;-82
2023/03/03 11:48:52;;;;;;;16.87;7.90;;;;;;;6.36;87.41;102574.03;4989747;28;20293;-83
2023/03/03 11:51:39;;;;;;;14.10;7.32;;;;;;;6.61;84.97;102573.69;4984939;28;20030;-84
2023/03/03 11:54:28;;;;;;;14.93;7.28;;;;;;;6.76;83.14;102571.00;4997473;28;20018;-82
2023/03/03 11:57:10;;;;;;;15.23;7.07;;;;;;;7.01;83.01;102566.09;4986598;28;20390;-82
2023/03/03 11:59:48;;;;;;;16.55;8.18;;;;;;;7.16;81.40;102567.88;5006261;28;20060;-83
2023/03/03 12:02:27;;;;;;;16.33;7.32;;;;;;;6.96;80.50;102558.69;5015710;28;20114;-83
2023/03/03 12:05:27;;;;;;;13.80;6.90;;;;;;;6.92;84.60;102561.94;5014144;28;20473;-83
2023/03/03 12:08:07;;;;;;;16.65;7.13;;;;;;;6.64;81.19;102555.50;5010314;28;20444;-85
2023/03/03 12:10:52;;;;;;;12.68;6.80;;;;;;;6.33;81.71;102545.13;5002247;28;20026;-85
2023/03/03 12:13:51;;;;;;;14.70;6.57;;;;;;;6.00;83.65;102550.88;5015782;28;20030;-84
2023/03/03 12:16:41;;;;;;;12.98;6.70;;;;;;;5.49;83.61;102549.69;5007142;28;20586;-85
2023/03/03 12:19:24;;;;;;;13.85;5.95;;;;;;;5.17;86.09;102553.50;5013549;28;20125;-83
2023/03/03 12:21:52;;;;;;;13.07;6.30;;;;;;;5.03;88.77;102544.47;5019558;28;20033;-83
2023/03/03 12:24:26;;;;;;;13.45;6.65;;;;;;;5.31;90.00;102553.50;5020956;28;20030;-83
2023/03/03 12:27:35;;;;;;;16.10;7.03;;;;;;;5.87;89.13;102546.97;5019749;28;20048;-84
2023/03/03 12:30:26;;;;;;;15.43;7.10;;;;;;;6.39;85.76;102530.22;5007435;28;20026;-81
2023/03/03 12:33:10;;;;;;;16.92;6.63;;;;;;;6.59;84.46;102531.28;4988482;28;20112;-82
2023/03/03 12:36:03;;;;;;;15.17;7.33;;;;;;;6.69;83.55;102541.63;5009637;28;20456;-82
2023/03/03 12:38:44;;;;;;;12.23;6.50;;;;;;;6.76;83.15;102534.50;5004963;28;20292;-83
2023/03/03 12:41:36;;;;;;;12.50;6.57;;;;;;;6.73;81.46;102540.22;5015658;28;20042;-83
2023/03/03 12:44:17;;;;;;;12.52;6.20;;;;;;;6.53;81.56;102537.34;5015403;28;20025;-83
2023/03/03 12:47:08;;;;;;;15.43;6.40;;;;;;;6.20;82.85;102538.63;5013842;28;20528;-83
2023/03/03 12:52:47;;;;;;;10.25;5.38;;;;;;;5.64;86.53;102527.63;5318382;23;20053;-86
2023/03/03 12:55:16;;;;;;;9.80;4.95;;;;;;;5.64;86.57;102524.97;5018102;28;20497;-84
2023/03/03 12:58:12;;;;;;;9.95;5.45;;;;;;;5.57;87.15;102522.19;5022002;28;20110;-85
2023/03/03 13:00:46;;;;;;;12.23;5.70;;;;;;;5.65;87.62;102518.63;5022477;28;20040;-85
2023/03/03 13:03:34;;;;;;;13.53;5.83;;;;;;;5.77;87.43;102514.50;5022564;28;20056;-85
2023/03/03 13:06:30;;;;;;;10.77;5.50;;;;;;;5.95;87.41;102521.28;5020482;28;20320;-88
2023/03/03 13:09:17;;;;;;;14.57;6.65;;;;;;;6.01;86.46;102512.59;5004129;28;20098;-85
2023/03/03 13:11:55;;;;;;;10.50;5.78;;;;;;;6.14;86.42;102512.75;4996005;28;20482;-84
2023/03/03 13:14:36;;;;;;;13.70;6.22;;;;;;;6.20;85.88;102508.50;5013628;28;20057;-85
2023/03/03 13:17:36;;;;;;;13.90;6.10;;;;;;;6.32;86.56;102508.84;5017772;28;20042;-85
2023/03/03 13:20:43;;;;;;;11.65;5.88;;;;;;;6.44;85.18;102507.34;5017807;28;20057;-85
2023/03/03 13:23:46;;;;;;;11.07;5.43;;;;;;;6.48;85.11;102508.63;5014257;28;20033;-85
2023/03/03 13:26:32;;;;;;;14.32;5.85;;;;;;;6.40;85.17;102506.06;5014227;28;20474;-85
2023/03/03 13:29:25;;;;;;;12.60;5.60;;;;;;;6.25;84.17;102505.28;5012190;28;20090;-85
2023/03/03 13:31:55;;;;;;;11.10;5.67;;;;;;;6.21;85.58;102491.53;5013981;28;20380;-85
2023/03/03 13:34:36;;;;;;;10.57;5.93;;;;;;;6.31;85.37;102499.22;5014414;28;20030;-85
2023/03/03 13:37:18;;;;;;;10.77;5.57;;;;;;;6.31;84.25;102489.38;5013061;28;20045;-85
2023/03/03 13:39:54;;;;;;;13.93;5.95;;;;;;;6.11;84.80;102457.22;5021442;23;20022;-86
2023/03/03 13:46:22;;;;;;;11.98;5.50;;;;;;;6.60;83.95;102495.63;4937079;29;20109;-85
2023/03/03 14:21:58;;;;;;;8.93;4.53;;;;;;;7.88;76.40;102476.00;4987716;23;20062;-85
2023/03/03 14:25:07;;;;;;;;;;;;;;;;;;;;;
2023/03/03 14:30:56;;;;;;;9.52;4.50;;;;;;;8.07;70.66;102470.09;5019316;23;20057;-86
2023/03/03 14:33:26;;;;;;;8.07;4.18;;;;;;;7.99;72.52;102445.25;5023806;28;20025;-86
2023/03/03 14:36:26;;;;;;;8.13;4.18;;;;;;;8.21;73.45;102463.78;5038023;28;20034;-86
2023/03/03 14:38:58;;;;;;;7.40;4.07;;;;;;;8.24;70.87;102466.03;5017334;28;20041;-86
2023/03/03 14:41:37;;;;;;;8.75;4.47;;;;;;;8.31;72.43;102461.56;5258863;23;20569;-86
2023/03/03 14:44:25;;;;;;;6.43;4.20;;;;;;;8.44;72.43;102468.78;4973411;28;20031;-86
2023/03/03 14:47:02;;;;;;;7.93;4.00;;;;;;;8.42;71.43;102448.59;4973696;28;20308;-86
2023/03/03 14:49:31;;;;;;;6.78;3.95;;;;;;;8.38;70.72;102455.41;4973390;28;20090;-86
2023/03/03 14:52:02;;;;;;;6.30;3.88;;;;;;;8.32;70.37;102449.84;4974461;28;20091;-86
2023/03/03 14:54:35;;;;;;;7.25;4.05;;;;;;;8.37;71.39;102453.75;4956597;28;20027;-86
2023/03/03 14:57:22;;;;;;;9.27;3.92;;;;;;;8.35;72.09;102451.28;4972034;28;20034;-86
2023/03/03 15:00:12;;;;;;;6.55;3.70;;;;;;;8.42;72.75;102449.44;5009422;23;20054;-86
2023/03/03 15:03:00;;;;;;;6.72;3.80;;;;;;;8.37;69.91;102451.09;4993886;28;20037;-86
2023/03/03 15:05:32;;;;;;;5.75;3.30;;;;;;;8.21;70.63;102441.59;4992515;28;20069;-86
2023/03/03 15:08:09;;;;;;;8.67;3.30;;;;;;;8.12;70.04;102443.63;4992396;28;20030;-86
2023/03/03 15:10:37;;;;;;;5.40;3.50;;;;;;;7.88;70.00;102443.13;4975436;28;20504;-87
2023/03/03 15:13:36;;;;;;;6.57;2.97;;;;;;;7.64;70.92;102447.16;4974970;28;20062;-86
2023/03/03 15:16:09;;;;;;;5.45;3.20;;;;;;;7.38;71.61;102440.66;4975210;28;20037;-87
2023/03/03 15:19:10;;;;;;;3.97;3.10;;;;;;;7.24;73.11;102424.56;4962766;28;20101;-86
2023/03/03 15:21:49;;;;;;;4.32;3.10;;;;;;;7.19;71.71;102415.53;4861743;29;20077;-86
2023/03/03 15:24:33;;;;;;;4.65;2.97;;;;;;;7.37;70.84;102421.16;4951526;28;20051;-86
2023/03/03 15:27:24;;;;;;;6.30;2.80;;;;;;;7.52;71.69;102407.69;4981365;28;20046;-86
2023/03/03 15:30:33;;;;;;;6.00;3.00;;;;;;;7.64;70.01;102407.97;4984575;28;20054;-87
2023/03/03 15:33:15;;;;;;;4.07;2.67;;;;;;;7.75;70.30;102413.75;5006273;28;20026;-86
2023/03/03 15:35:50;;;;;;;4.28;2.90;;;;;;;7.75;68.66;102411.06;5009834;28;20052;-86
2023/03/03 15:38:33;;;;;;;4.85;3.08;;;;;;;7.72;68.84;102406.97;5006921;28;20093;-86
2023/03/03 15:41:08;;;;;;;4.85;3.28;;;;;;;7.66;69.17;102413.94;5007911;28;20023;-87
2023/03/03 15:43:43;;;;;;;7.70;3.40;;;;;;;7.50;70.59;102424.91;4995827;28;20215;-86
2023/03/03 15:46:20;;;;;;;8.65;4.10;;;;;;;7.27;70.09;102413.53;4995313;28;20048;-86
2023/03/03 15:57:41;;;;;;;;;;;;;;;;;;;;;
2023/03/03 16:00:42;;;;;;;5.78;3.40;;;;;;;6.84;73.27;102410.16;4924551;28;20104;-85
2023/03/03 16:03:26;;;;;;;7.32;3.33;;;;;;;6.75;73.02;102402.31;4993745;28;20113;-86
2023/03/03 16:06:22;;;;;;;6.25;3.40;;;;;;;6.73;74.00;102398.19;4976248;28;20525;-85
2023/03/03 16:09:19;;;;;;;8.45;3.30;;;;;;;6.59;73.62;102398.09;4995702;28;20029;-86
2023/03/03 16:11:55;;;;;;;4.68;2.90;;;;;;;6.47;74.23;102405.78;4994786;28;20378;-86
2023/03/03 16:14:39;;;;;;;6.80;2.70;;;;;;;6.48;75.74;102401.28;4975629;28;20061;-86
2023/03/03 16:17:26;;;;;;;4.97;2.93;;;;;;;6.59;75.73;102406.06;4993118;28;20626;-86
2023/03/03 16:20:02;;;;;;;5.82;3.03;;;;;;;6.70;74.21;102406.56;4993417;28;20058;-86
2023/03/03 16:23:15;;;;;;;7.65;3.00;;;;;;;6.77;75.02;102405.59;4975598;28;20018;-87
2023/03/03 16:26:05;;;;;;;5.78;2.75;;;;;;;6.76;74.50;102397.81;4949870;28;20039;-86
2023/03/03 16:28:49;;;;;;;4.57;3.08;;;;;;;6.71;73.69;102410.88;5004314;28;20421;-86
2023/03/03 16:31:26;;;;;;;4.50;2.20;;;;;;;6.67;74.06;102399.78;5015851;28;20409;-86
2023/03/03 16:34:17;;;;;;;7.25;2.90;;;;;;;6.58;73.50;102407.09;4997909;28;20030;-86
2023/03/03 16:37:13;;;;;;;3.92;2.20;;;;;;;6.46;74.22;102404.13;5014367;28;20104;-86
2023/03/03 16:39:49;;;;;;;4.63;2.30;;;;;;;6.36;74.14;102408.94;4996100;28;20034;-85
2023/03/03 16:42:21;;;;;;;5.33;2.40;;;;;;;6.31;73.92;102411.34;5004095;28;20022;-85
2023/03/03 16:44:50;;;;;;;5.30;2.00;;;;;;;6.25;73.76;102404.97;5018215;28;20285;-85
2023/03/03 16:47:25;;;;;;;4.63;2.20;;;;;;;6.24;74.46;102416.63;5017280;28;20026;-85
2023/03/03 16:50:16;;;;;;;7.28;1.77;;;;;;;6.16;75.57;102422.88;5017023;28;20033;-87
2023/03/03 16:53:23;;;;;;;7.32;1.70;;;;;;;6.08;76.06;102416.84;5018665;28;20029;-86
2023/03/03 16:56:16;;;;;;;8.23;1.95;;;;;;;5.98;76.73;102417.13;5015049;28;20116;-85
2023/03/03 16:59:07;;;;;;;5.50;1.50;;;;;;;5.94;77.34;102424.66;5014734;28;20022;-86
2023/03/03 17:01:42;;;;;;;9.30;1.80;;;;;;;5.82;77.81;102416.34;5025865;28;20030;-86
2023/03/03 17:04:49;;;;;;;7.55;1.60;;;;;;;5.80;78.60;102429.00;5017424;28;20045;-86
2023/03/03 17:07:17;;;;;;;7.97;1.40;;;;;;;5.72;78.82;102432.59;5000120;28;20022;-86
2023/03/03 17:10:09;;;;;;;5.27;1.50;;;;;;;5.65;79.96;102434.34;5017467;28;20276;-86
2023/03/03 17:13:19;;;;;;;11.40;1.63;;;;;;;5.58;80.97;102436.91;5019305;28;20037;-87
2023/03/03 17:16:04;;;;;;;7.95;1.65;;;;;;;5.49;81.65;102445.97;4984233;28;20042;-86
2023/03/03 17:18:56;;;;;;;7.57;1.67;;;;;;;5.42;82.36;102448.56;5012959;28;20037;-87
2023/03/03 17:21:55;;;;;;;11.40;1.80;;;;;;;5.36;82.69;102445.81;5014497;28;20034;-87
2023/03/03 17:24:59;;;;;;;6.40;1.40;;;;;;;5.28;83.01;102452.88;5014322;28;20030;-87
2023/03/03 17:27:54;;;;;;;20.02;2.00;;;;;;;5.24;83.18;102453.41;5012596;28;20069;-85
2023/03/03 17:30:46;;;;;;;3.20;1.50;;;;;;;5.14;83.68;102440.38;4973912;28;20096;-86
2023/03/03 17:33:39;;;;;;;5.40;2.70;;;;;;;5.11;83.60;102454.06;4977205;28;20369;-86
2023/03/03 17:36:33;;;;;;;10.85;2.85;;;;;;;5.10;83.43;102468.34;4993945;28;20583;-86
2023/03/03 17:39:07;;;;;;;6.80;4.18;;;;;;;5.00;83.54;102450.00;4993192;28;20041;-86
2023/03/03 17:41:56;;;;;;;8.00;5.60;;;;;;;5.03;83.33;102462.09;4993966;28;20109;-86
2023/03/03 17:44:29;;;;;;;6.00;3.10;;;;;;;4.99;83.23;102466.94;4998822;28;20119;-86
2023/03/03 17:47:03;;;;;;;5.80;3.78;;;;;;;4.98;83.53;102481.22;5012620;28;20034;-86
2023/03/03 17:49:52;;;;;;;4.05;2.60;;;;;;;4.93;83.82;102473.78;5011930;28;20033;-87
2023/03/03 17:52:30;;;;;;;4.50;3.10;;;;;;;4.93;83.47;102480.94;5013662;28;20038;-87
2023/03/03 17:55:17;;;;;;;8.02;3.40;;;;;;;4.91;83.88;102486.44;5013583;28;20033;-86
2023/03/03 17:58:04;;;;;;;3.70;2.80;;;;;;;4.88;83.91;102484.13;5012035;28;20478;-87
2023/03/03 18:10:56;;;;;;;5.50;2.10;;;;;;;4.73;83.03;102494.69;5263782;23;20505;-86
2023/03/03 18:13:47;;;;;;;3.72;1.80;;;;;;;4.65;83.05;102492.94;5012438;28;20439;-86
2023/03/03 18:16:21;;;;;;;6.63;2.67;;;;;;;4.65;83.58;102492.13;5010758;28;20123;-84
2023/03/03 18:19:11;;;;;;;4.53;2.40;;;;;;;4.51;84.25;102489.19;5022535;28;20034;-85
2023/03/03 18:22:06;;;;;;;3.10;1.50;;;;;;;4.53;84.82;102504.97;4993854;28;20666;-85
2023/03/03 18:24:49;;;;;;;3.97;1.60;;;;;;;4.48;85.24;102507.31;5000362;28;20551;-85